Time;durP1;ratioP1;P1;durP2;ratioP2;P2;SDS_P1;SDS_P2;PMS_P1;PMS_P2;Temp;Humidity;BMP_temperature;BMP_pressure;BME280_temperature;BME280_humidity;BME280_pressure;Samples;Min_cycle;Max_cycle;Signal;HPM_P1;HPM_P2
2022/03/03 00:02:22;;;;;;;16.92;6.15;;;-0.60;99.90;;;;;;10335364;28;20194;-63
2022/03/03 00:07:25;;;;;;;15.18;5.60;;;-0.60;99.90;;;;;;10333479;28;20139;-63
2022/03/03 00:12:27;;;;;;;13.60;5.35;;;-0.70;99.90;;;;;;10336142;28;20103;-63
2022/03/03 00:17:29;;;;;;;13.48;5.60;;;-0.70;99.90;;;;;;10330829;28;20047;-63
2022/03/03 00:22:31;;;;;;;18.70;6.82;;;-0.70;99.90;;;;;;10334824;28;20077;-63
2022/03/03 00:27:32;;;;;;;13.93;5.38;;;-0.80;99.90;;;;;;10334626;28;20238;-64
2022/03/03 00:32:40;;;;;;;12.15;4.82;;;-0.80;99.90;;;;;;10337052;28;20066;-63
2022/03/03 00:37:42;;;;;;;10.82;4.57;;;-0.90;99.90;;;;;;10335451;28;20051;-62
2022/03/03 00:42:44;;;;;;;10.98;4.75;;;-0.90;99.90;;;;;;10347533;28;20086;-63
2022/03/03 00:47:45;;;;;;;13.57;4.88;;;-1.00;99.90;;;;;;10346519;28;20046;-64
2022/03/03 00:52:47;;;;;;;13.50;5.43;;;-1.00;99.90;;;;;;10344565;28;20111;-63
2022/03/03 00:57:48;;;;;;;14.02;4.90;;;-1.00;99.90;;;;;;10345866;28;20042;-64
2022/03/03 01:02:51;;;;;;;11.65;4.50;;;-1.00;99.90;;;;;;10344109;28;20136;-64
2022/03/03 01:07:53;;;;;;;10.38;3.83;;;-1.10;99.90;;;;;;10349829;28;20123;-65
2022/03/03 01:12:54;;;;;;;11.98;5.60;;;-1.10;99.90;;;;;;10345334;28;20046;-63
2022/03/03 01:17:56;;;;;;;13.75;4.75;;;-1.20;99.90;;;;;;10332418;28;20688;-64
2022/03/03 01:22:58;;;;;;;12.90;4.40;;;-1.20;99.90;;;;;;10343520;28;20057;-63
2022/03/03 01:28:00;;;;;;;9.07;3.88;;;-1.30;99.90;;;;;;10341922;28;20046;-64
2022/03/03 01:33:01;;;;;;;15.30;4.88;;;-1.30;99.90;;;;;;10317860;28;20045;-63
2022/03/03 01:38:03;;;;;;;14.07;5.20;;;-1.30;99.90;;;;;;10353308;28;20126;-63
2022/03/03 01:43:05;;;;;;;13.63;5.82;;;-1.30;99.90;;;;;;10344445;28;20053;-63
2022/03/03 01:48:07;;;;;;;18.02;6.82;;;-1.30;99.90;;;;;;10347093;28;20061;-64
2022/03/03 01:53:08;;;;;;;16.45;6.03;;;-1.40;99.90;;;;;;10347994;28;20073;-64
2022/03/03 01:58:10;;;;;;;15.77;5.47;;;-1.40;99.90;;;;;;10339023;28;20042;-64
2022/03/03 02:03:12;;;;;;;13.85;5.65;;;-1.50;99.90;;;;;;10341266;28;20058;-64
2022/03/03 02:08:14;;;;;;;15.38;5.50;;;-1.50;99.90;;;;;;10343786;28;20124;-65
2022/03/03 02:13:16;;;;;;;13.07;5.03;;;-1.50;99.90;;;;;;10344928;28;20489;-64
2022/03/03 02:18:18;;;;;;;14.82;5.28;;;-1.50;99.90;;;;;;10338906;28;20078;-63
2022/03/03 02:23:19;;;;;;;13.32;4.82;;;-1.60;99.90;;;;;;10343136;28;20046;-64
2022/03/03 02:28:21;;;;;;;17.38;6.07;;;-1.60;99.90;;;;;;10344010;28;20049;-64
2022/03/03 02:33:23;;;;;;;17.08;5.97;;;-1.60;99.90;;;;;;10328629;28;20073;-62
2022/03/03 02:38:24;;;;;;;11.63;4.93;;;-1.60;99.90;;;;;;10339751;28;20119;-63
2022/03/03 02:43:26;;;;;;;14.30;4.68;;;-1.70;99.90;;;;;;10342762;28;20107;-62
2022/03/03 02:48:28;;;;;;;15.63;6.05;;;-1.70;99.90;;;;;;10342464;28;20046;-63
2022/03/03 02:53:30;;;;;;;16.08;6.15;;;-1.70;99.90;;;;;;10347214;28;20053;-62
2022/03/03 02:58:32;;;;;;;13.15;5.68;;;-1.80;99.90;;;;;;10342642;28;20120;-62
2022/03/03 03:03:33;;;;;;;12.38;4.68;;;-1.80;99.90;;;;;;10342362;28;20115;-62
2022/03/03 03:08:35;;;;;;;14.52;5.18;;;-1.80;99.90;;;;;;10345281;28;20077;-62
2022/03/03 03:13:37;;;;;;;12.40;4.93;;;-1.80;99.90;;;;;;10336756;28;20070;-63
2022/03/03 03:18:40;;;;;;;16.23;4.78;;;-1.90;99.90;;;;;;10337060;28;20078;-63
2022/03/03 03:23:41;;;;;;;12.85;4.75;;;-1.90;99.90;;;;;;10347463;28;20140;-63
2022/03/03 03:28:43;;;;;;;11.05;4.55;;;-2.00;99.90;;;;;;10322094;28;20070;-63
2022/03/03 03:33:45;;;;;;;11.50;4.63;;;-2.00;99.90;;;;;;10343265;28;20093;-64
2022/03/03 03:38:47;;;;;;;11.48;4.18;;;-2.00;99.90;;;;;;10338324;28;20074;-63
2022/03/03 03:43:48;;;;;;;13.95;5.13;;;-2.00;99.90;;;;;;10340625;28;20070;-63
2022/03/03 03:48:50;;;;;;;12.13;4.75;;;-2.00;99.90;;;;;;10334514;28;20104;-64
2022/03/03 03:53:51;;;;;;;16.65;6.50;;;-2.00;99.90;;;;;;10345082;28;20133;-63
2022/03/03 03:58:53;;;;;;;16.85;6.25;;;-2.00;99.90;;;;;;10340151;28;20539;-63
2022/03/03 04:03:55;;;;;;;21.88;7.47;;;-2.00;99.90;;;;;;10336824;28;20591;-64
2022/03/03 04:08:57;;;;;;;13.10;5.55;;;-2.00;99.90;;;;;;10344191;28;20494;-64
2022/03/03 04:13:58;;;;;;;13.73;5.68;;;-1.90;99.90;;;;;;10347892;28;20073;-63
2022/03/03 04:19:00;;;;;;;11.93;4.75;;;-1.90;99.90;;;;;;10350923;28;20396;-62
2022/03/03 04:24:02;;;;;;;11.88;5.10;;;-2.00;99.90;;;;;;10350056;28;20077;-63
2022/03/03 04:29:05;;;;;;;14.68;5.53;;;-2.00;99.90;;;;;;10347966;28;20042;-63
2022/03/03 04:34:06;;;;;;;13.50;4.72;;;-2.00;99.90;;;;;;10335741;28;20042;-63
2022/03/03 04:39:08;;;;;;;12.75;4.38;;;-2.10;99.90;;;;;;10350765;28;20518;-63
2022/03/03 04:44:09;;;;;;;12.63;4.85;;;-2.10;99.90;;;;;;10343731;28;20073;-63
2022/03/03 04:49:12;;;;;;;14.38;5.88;;;-2.10;99.90;;;;;;10352434;28;20096;-63
2022/03/03 04:54:16;;;;;;;17.80;5.18;;;-2.20;99.90;;;;;;10340926;28;20050;-63
2022/03/03 04:59:18;;;;;;;21.95;6.88;;;-2.20;99.90;;;;;;10343653;28;20451;-63
2022/03/03 05:04:20;;;;;;;19.92;5.88;;;-2.30;99.90;;;;;;10346458;28;20037;-63
2022/03/03 05:09:21;;;;;;;15.40;4.78;;;-2.30;99.90;;;;;;10333355;28;20089;-62
2022/03/03 05:14:23;;;;;;;13.23;4.80;;;-2.30;99.90;;;;;;10343359;28;20528;-62
2022/03/03 05:19:25;;;;;;;13.25;6.00;;;-2.30;99.90;;;;;;10342858;28;20109;-63
2022/03/03 05:24:26;;;;;;;19.88;6.72;;;-2.30;99.90;;;;;;10344605;28;20050;-62
2022/03/03 05:29:28;;;;;;;14.35;6.53;;;-2.40;99.90;;;;;;10340119;28;20045;-63
2022/03/03 05:34:30;;;;;;;18.95;5.80;;;-2.40;99.90;;;;;;10335068;28;20053;-62
2022/03/03 05:39:31;;;;;;;17.75;5.95;;;-2.40;99.90;;;;;;10329683;28;20485;-62
2022/03/03 05:44:34;;;;;;;16.13;5.35;;;-2.40;99.90;;;;;;10346082;28;20045;-64
2022/03/03 05:49:36;;;;;;;20.60;7.72;;;-2.40;99.90;;;;;;10344321;28;20056;-63
2022/03/03 05:54:38;;;;;;;15.82;7.15;;;-2.40;99.90;;;;;;10350579;28;20066;-63
2022/03/03 05:59:41;;;;;;;16.98;6.65;;;-2.40;99.90;;;;;;10341173;28;20061;-63
2022/03/03 06:04:43;;;;;;;11.57;5.25;;;-2.40;99.90;;;;;;10342226;28;20088;-64
2022/03/03 06:09:50;;;;;;;14.48;5.82;;;-2.30;99.90;;;;;;10339288;28;20107;-65
2022/03/03 06:14:54;;;;;;;12.30;5.13;;;-2.30;99.90;;;;;;10341972;28;20135;-64
2022/03/03 06:20:00;;;;;;;10.00;4.68;;;-2.20;99.90;;;;;;10340915;28;20053;-64
2022/03/03 06:25:05;;;;;;;14.55;5.90;;;-2.10;99.90;;;;;;10341601;28;20053;-61
2022/03/03 06:30:08;;;;;;;15.07;4.82;;;-2.00;99.90;;;;;;10343712;28;20065;-61
2022/03/03 06:35:10;;;;;;;18.40;5.85;;;-2.00;99.90;;;;;;10323552;28;20112;-60
2022/03/03 06:40:12;;;;;;;14.68;6.45;;;-1.90;99.90;;;;;;10340325;28;20054;-59
2022/03/03 06:45:17;;;;;;;15.45;5.57;;;-1.70;99.90;;;;;;10346430;28;20372;-60
2022/03/03 06:50:19;;;;;;;15.65;6.40;;;-1.60;99.90;;;;;;10344642;28;20050;-60
2022/03/03 06:55:24;;;;;;;18.13;6.13;;;-1.60;99.90;;;;;;10346645;28;20050;-60
2022/03/03 07:00:28;;;;;;;13.68;6.15;;;-1.50;99.90;;;;;;10324427;28;20468;-60
2022/03/03 07:05:31;;;;;;;19.40;6.05;;;-1.30;99.90;;;;;;10325174;28;20042;-61
2022/03/03 07:10:33;;;;;;;19.25;8.15;;;-1.20;99.90;;;;;;10339943;28;20563;-61
2022/03/03 07:16:07;;;;;;;17.45;7.45;;;-1.10;99.90;;;;;;10333516;28;20128;-65
2022/03/03 07:21:15;;;;;;;23.17;6.25;;;-1.00;99.90;;;;;;10299240;28;20050;-63
2022/03/03 07:26:18;;;;;;;19.67;6.35;;;-0.90;99.90;;;;;;10331697;28;20058;-63
2022/03/03 07:31:23;;;;;;;14.05;5.75;;;-0.70;99.90;;;;;;10334046;28;20050;-63
2022/03/03 07:36:29;;;;;;;12.82;5.95;;;-0.70;99.90;;;;;;10344715;28;20057;-63
2022/03/03 07:41:31;;;;;;;17.77;6.07;;;-0.60;99.90;;;;;;10338210;28;20121;-62
2022/03/03 07:46:32;;;;;;;21.17;8.55;;;-0.50;99.90;;;;;;10335321;28;20136;-63
2022/03/03 07:51:36;;;;;;;17.88;8.77;;;-0.40;99.90;;;;;;10345315;28;20088;-62
2022/03/03 07:56:43;;;;;;;13.18;6.22;;;-0.30;99.90;;;;;;10345222;28;20061;-62
2022/03/03 08:01:46;;;;;;;15.00;7.10;;;-0.10;99.90;;;;;;10335104;28;20090;-62
2022/03/03 08:06:52;;;;;;;16.45;8.98;;;0.00;99.90;;;;;;10342206;28;20108;-62
2022/03/03 08:11:54;;;;;;;17.95;6.70;;;0.20;99.90;;;;;;10340375;28;20157;-63
2022/03/03 08:16:55;;;;;;;18.13;6.45;;;0.30;99.90;;;;;;10343817;28;20499;-63
2022/03/03 08:21:58;;;;;;;19.13;7.00;;;0.40;99.90;;;;;;10331227;28;20085;-63
2022/03/03 08:27:01;;;;;;;21.08;7.90;;;0.60;99.90;;;;;;10339114;28;20574;-63
2022/03/03 08:32:10;;;;;;;24.52;6.38;;;0.80;99.90;;;;;;10339429;28;20049;-63
2022/03/03 08:37:28;;;;;;;18.25;6.57;;;1.00;99.90;;;;;;10340194;28;20046;-63
2022/03/03 08:42:34;;;;;;;18.70;5.77;;;1.20;99.90;;;;;;10325775;28;20042;-63
2022/03/03 08:47:42;;;;;;;12.80;6.20;;;1.40;97.50;;;;;;10336542;23;20077;-89
2022/03/03 08:52:44;;;;;;;19.98;6.30;;;1.60;95.50;;;;;;10290962;28;20074;-89
2022/03/03 08:57:46;;;;;;;15.50;6.35;;;1.80;94.70;;;;;;10286154;28;20066;-89
2022/03/03 09:02:49;;;;;;;15.27;5.43;;;2.00;93.70;;;;;;10254573;28;20501;-88
2022/03/03 09:07:56;;;;;;;14.07;5.72;;;2.20;92.00;;;;;;10286038;28;20054;-89
2022/03/03 09:13:00;;;;;;;13.05;5.70;;;2.40;90.60;;;;;;10237985;28;20496;-88
2022/03/03 09:18:02;;;;;;;12.82;5.50;;;2.60;89.90;;;;;;10270680;28;20838;-89
2022/03/03 09:23:05;;;;;;;20.35;5.80;;;2.80;90.30;;;;;;10284027;28;20105;-89
2022/03/03 09:28:07;;;;;;;17.55;7.18;;;3.00;86.80;;;;;;10289120;28;20066;-89
2022/03/03 09:33:20;;;;;;;12.40;5.05;;;3.10;85.70;;;;;;10282131;28;20117;-89
2022/03/03 09:38:22;;;;;;;13.45;4.78;;;3.40;83.00;;;;;;10259600;28;20058;-89
2022/03/03 09:43:28;;;;;;;12.82;4.72;;;3.70;79.10;;;;;;10268369;28;20534;-90
2022/03/03 09:48:32;;;;;;;16.60;6.03;;;3.80;78.80;;;;;;10254695;28;20086;-89
2022/03/03 09:53:34;;;;;;;10.85;4.72;;;4.10;78.80;;;;;;10275829;28;20042;-89
2022/03/03 10:04:59;;;;;;;14.35;6.22;;;4.20;77.00;;;;;;10262183;28;20030;-89
2022/03/03 10:10:07;;;;;;;11.77;4.55;;;4.30;74.80;;;;;;10292343;28;20036;-89
2022/03/03 10:15:32;;;;;;;16.02;5.18;;;4.50;75.80;;;;;;10061430;28;20076;-89
2022/03/03 10:21:29;;;;;;;13.00;5.28;;;4.60;75.70;;;;;;10006667;28;20204;-89
2022/03/03 10:27:38;;;;;;;12.35;5.50;;;4.80;74.50;;;;;;9854907;29;20048;-89
2022/03/03 10:33:19;;;;;;;8.80;5.00;;;5.00;72.30;;;;;;9961053;28;20116;-90
2022/03/03 10:38:43;;;;;;;14.05;5.43;;;5.30;69.40;;;;;;9996870;28;20069;-88
2022/03/03 10:44:37;;;;;;;9.35;4.55;;;5.40;68.50;;;;;;10049859;28;20079;-89
2022/03/03 10:49:42;;;;;;;16.15;6.00;;;5.50;68.50;;;;;;10267914;28;20428;-89
2022/03/03 10:54:54;;;;;;;10.25;5.30;;;5.70;68.80;;;;;;10281873;28;20068;-90
2022/03/03 11:00:01;;;;;;;14.15;5.38;;;5.90;65.80;;;;;;10279008;28;20054;-90
2022/03/03 11:05:04;;;;;;;11.60;5.47;;;6.00;65.40;;;;;;10279531;28;20142;-90
2022/03/03 11:10:08;;;;;;;13.13;6.10;;;6.10;65.10;;;;;;10291510;28;20571;-89
2022/03/03 11:15:11;;;;;;;10.88;5.28;;;6.30;63.00;;;;;;10265256;28;20610;-88
2022/03/03 11:20:15;;;;;;;10.98;4.80;;;6.30;63.10;;;;;;10241661;28;20507;-90
2022/03/03 11:25:29;;;;;;;11.27;4.93;;;6.50;61.40;;;;;;10281273;28;20097;-89
2022/03/03 11:30:32;;;;;;;8.80;4.40;;;6.80;63.70;;;;;;10302423;28;20295;-89
2022/03/03 11:36:01;;;;;;;12.60;5.13;;;6.90;60.70;;;;;;10271926;28;20096;-89
2022/03/03 11:41:06;;;;;;;10.18;4.30;;;7.10;59.90;;;;;;10306520;28;20066;-89
2022/03/03 11:46:08;;;;;;;11.73;5.18;;;7.20;58.70;;;;;;10291633;28;20058;-89
2022/03/03 11:51:34;;;;;;;6.88;4.10;;;7.60;65.00;;;;;;10295657;28;20133;-88
2022/03/03 11:57:08;;;;;;;7.75;3.88;;;7.80;53.80;;;;;;10277689;28;20054;-89
2022/03/03 12:02:15;;;;;;;10.18;5.03;;;8.90;52.70;;;;;;10258113;28;20058;-88
2022/03/03 12:07:28;;;;;;;12.23;5.00;;;10.10;50.40;;;;;;10268890;28;20086;-89
2022/03/03 12:12:31;;;;;;;12.85;6.18;;;;;;;;;;10282049;28;20054;-89
2022/03/03 12:17:33;;;;;;;12.52;5.35;;;13.60;41.70;;;;;;10255231;28;20089;-89
2022/03/03 12:22:35;;;;;;;11.48;5.07;;;14.90;40.40;;;;;;10277115;28;20114;-89
2022/03/03 12:28:15;;;;;;;7.72;4.95;;;15.70;38.80;;;;;;10230994;28;20077;-89
2022/03/03 12:33:40;;;;;;;9.30;5.05;;;15.70;39.00;;;;;;10276876;28;20125;-89
2022/03/03 12:38:42;;;;;;;9.85;6.20;;;15.20;39.40;;;;;;10307713;28;20086;-89
2022/03/03 12:43:43;;;;;;;8.32;5.30;;;14.50;40.20;;;;;;10297289;28;20082;-89
2022/03/03 12:49:03;;;;;;;9.35;5.38;;;15.20;39.20;;;;;;10303510;28;20332;-89
2022/03/03 12:54:09;;;;;;;12.18;5.43;;;15.60;37.70;;;;;;10180463;28;20054;-89
2022/03/03 12:59:33;;;;;;;10.25;5.78;;;16.40;36.80;;;;;;10177714;28;20125;-90
2022/03/03 13:04:47;;;;;;;10.98;6.18;;;17.20;36.10;;;;;;10211139;28;20054;-90
2022/03/03 13:09:52;;;;;;;8.25;5.78;;;18.00;35.00;;;;;;10285200;28;20039;-90
2022/03/03 13:15:06;;;;;;;10.47;5.50;;;18.70;33.50;;;;;;10284662;28;20046;-89
2022/03/03 13:20:20;;;;;;;22.40;5.80;;;19.60;32.80;;;;;;10290850;28;20078;-89
2022/03/03 13:25:23;;;;;;;8.57;5.30;;;20.30;32.20;;;;;;10155482;28;20062;-90
2022/03/03 13:30:26;;;;;;;8.63;5.95;;;21.00;31.30;;;;;;10237626;28;20078;-90
2022/03/03 13:35:40;;;;;;;13.93;6.40;;;21.40;29.70;;;;;;10206601;28;20054;-90
2022/03/03 13:40:48;;;;;;;8.93;5.78;;;21.10;29.70;;;;;;10104686;28;20079;-89
2022/03/03 13:45:53;;;;;;;8.55;5.75;;;21.60;29.90;;;;;;10157590;28;20050;-89
2022/03/03 13:51:15;;;;;;;9.48;5.07;;;21.80;29.40;;;;;;10170296;28;20069;-89
2022/03/03 13:56:18;;;;;;;8.68;4.97;;;21.80;29.50;;;;;;10329740;28;20070;-90
2022/03/03 14:01:28;;;;;;;8.90;5.60;;;21.70;29.80;;;;;;10297777;28;20098;-89
2022/03/03 14:06:30;;;;;;;9.93;5.30;;;21.90;29.70;;;;;;10327333;28;20049;-90
2022/03/03 14:11:33;;;;;;;9.85;5.57;;;21.90;30.70;;;;;;10326823;28;20050;-90
2022/03/03 14:16:35;;;;;;;7.90;5.45;;;21.30;29.40;;;;;;10305210;28;20142;-89
2022/03/03 14:21:39;;;;;;;9.13;6.15;;;21.20;29.30;;;;;;10307197;28;20050;-90
2022/03/03 14:26:41;;;;;;;10.18;6.05;;;20.90;29.50;;;;;;10324768;28;20261;-90
2022/03/03 14:31:45;;;;;;;8.63;5.18;;;20.30;30.10;;;;;;10293902;28;20062;-89
2022/03/03 14:36:47;;;;;;;10.15;5.75;;;19.60;32.00;;;;;;10259738;28;20046;-89
2022/03/03 14:41:52;;;;;;;9.30;5.00;;;19.20;30.80;;;;;;10253755;28;20122;-89
2022/03/03 14:46:54;;;;;;;12.20;5.35;;;18.90;33.30;;;;;;10250158;28;20114;-89
2022/03/03 14:51:59;;;;;;;7.45;4.97;;;18.40;32.30;;;;;;10262231;28;20050;-89
2022/03/03 14:57:05;;;;;;;8.48;4.93;;;18.00;32.50;;;;;;10268696;28;20073;-89
2022/03/03 15:02:11;;;;;;;6.72;4.50;;;17.10;33.00;;;;;;10219205;28;20086;-88
2022/03/03 15:07:17;;;;;;;8.57;5.00;;;17.10;33.50;;;;;;10187381;28;20139;-89
2022/03/03 15:12:19;;;;;;;9.55;4.90;;;16.70;34.60;;;;;;10266737;28;20073;-89
2022/03/03 15:17:30;;;;;;;8.15;4.85;;;16.40;34.50;;;;;;10243867;28;20046;-89
2022/03/03 15:28:10;;;;;;;8.50;4.78;;;16.10;35.40;;;;;;9984245;28;20047;-88
2022/03/03 15:36:44;;;;;;;9.23;4.93;;;15.80;35.20;;;;;;10244988;28;20042;-88
2022/03/03 15:38:34;;;;;;;9.27;5.03;;;15.80;36.90;;;;;;10214701;28;20058;-89
2022/03/03 15:43:35;;;;;;;10.07;4.88;;;15.50;36.70;;;;;;10185920;28;20052;-88
2022/03/03 15:48:37;;;;;;;12.00;5.95;;;15.40;36.80;;;;;;10241635;28;20055;-88
2022/03/03 15:53:39;;;;;;;11.23;5.40;;;15.20;36.50;;;;;;10272749;28;20138;-87
2022/03/03 15:58:41;;;;;;;19.85;9.00;;;14.90;36.30;;;;;;10273258;28;20080;-87
2022/03/03 16:03:46;;;;;;;20.20;8.57;;;14.70;37.80;;;;;;10269964;28;20145;-87
2022/03/03 16:09:01;;;;;;;7.70;4.30;;;14.50;38.90;;;;;;10253924;28;20050;-87
2022/03/03 16:14:03;;;;;;;6.63;3.53;;;14.00;39.80;;;;;;10269011;28;20114;-89
2022/03/03 16:19:25;;;;;;;8.35;3.75;;;13.80;38.60;;;;;;10252448;28;20042;-87
2022/03/03 16:24:33;;;;;;;7.50;3.42;;;13.50;39.40;;;;;;10277812;28;20061;-88
2022/03/03 16:29:35;;;;;;;6.00;2.55;;;13.30;39.70;;;;;;10241644;28;20055;-87
2022/03/03 16:34:53;;;;;;;8.02;2.75;;;12.70;41.60;;;;;;10281485;28;20483;-88
2022/03/03 16:39:56;;;;;;;3.88;2.20;;;12.30;43.70;;;;;;10243906;28;20109;-87
2022/03/03 16:45:13;;;;;;;6.03;2.47;;;11.70;46.00;;;;;;10258660;28;20059;-87
2022/03/03 16:50:21;;;;;;;8.35;2.70;;;11.20;47.70;;;;;;10277632;28;20049;-88
2022/03/03 16:55:23;;;;;;;7.13;2.92;;;10.70;49.90;;;;;;10260869;28;20038;-87
2022/03/03 17:00:25;;;;;;;6.72;2.30;;;10.30;51.40;;;;;;10265255;28;20058;-87
2022/03/03 17:05:27;;;;;;;5.07;2.17;;;9.90;52.30;;;;;;10270752;28;20070;-87
2022/03/03 17:10:29;;;;;;;6.60;2.45;;;9.60;53.60;;;;;;10271104;28;20047;-87
2022/03/03 17:15:31;;;;;;;9.20;2.83;;;9.30;55.00;;;;;;10266650;28;20399;-88
2022/03/03 17:20:33;;;;;;;4.50;2.42;;;9.00;56.20;;;;;;10270156;28;20043;-89
2022/03/03 17:25:36;;;;;;;6.90;2.05;;;8.60;57.30;;;;;;10257317;28;20071;-90
2022/03/03 17:30:38;;;;;;;7.45;2.15;;;8.40;57.90;;;;;;10268591;28;20047;-88
2022/03/03 17:35:40;;;;;;;5.85;2.90;;;8.20;59.20;;;;;;10255785;28;20047;-87
2022/03/03 17:40:42;;;;;;;7.15;3.28;;;7.90;61.00;;;;;;10264663;28;20054;-89
2022/03/03 17:45:49;;;;;;;5.82;2.70;;;7.70;61.60;;;;;;10279672;28;20050;-90
2022/03/03 17:50:50;;;;;;;7.57;3.08;;;7.40;63.00;;;;;;10272731;28;20383;-91
2022/03/03 17:55:53;;;;;;;6.28;2.85;;;7.20;64.50;;;;;;10295247;28;20138;-90
2022/03/03 18:00:54;;;;;;;6.72;3.33;;;7.00;65.10;;;;;;10279656;28;20050;-90
2022/03/03 18:05:57;;;;;;;8.43;2.80;;;6.80;66.00;;;;;;10292747;28;20050;-90
2022/03/03 18:11:00;;;;;;;8.88;3.17;;;6.50;67.40;;;;;;10276572;28;20046;-89
2022/03/03 18:16:02;;;;;;;7.57;2.85;;;6.30;67.20;;;;;;10295065;28;20047;-88
2022/03/03 18:21:05;;;;;;;4.95;2.15;;;6.20;67.60;;;;;;10290460;28;20050;-89
2022/03/03 18:26:09;;;;;;;8.50;2.67;;;6.00;67.40;;;;;;10270301;28;20069;-88
2022/03/03 18:31:15;;;;;;;7.28;2.53;;;5.90;67.30;;;;;;10283286;28;20043;-89
2022/03/03 18:36:21;;;;;;;6.95;2.22;;;5.70;67.30;;;;;;10267692;28;20066;-89
2022/03/03 18:41:23;;;;;;;8.27;3.30;;;5.60;66.90;;;;;;10293228;28;20050;-89
2022/03/03 18:46:26;;;;;;;8.40;3.08;;;5.50;66.70;;;;;;10285880;28;20051;-88
2022/03/03 18:51:29;;;;;;;8.82;3.20;;;5.40;66.60;;;;;;10301743;28;20069;-88
2022/03/03 18:56:40;;;;;;;9.07;2.72;;;5.30;66.40;;;;;;10271922;28;20409;-89
2022/03/03 19:01:42;;;;;;;8.45;3.03;;;5.20;66.50;;;;;;10283918;28;20046;-88
2022/03/03 19:06:45;;;;;;;9.10;3.53;;;5.10;65.90;;;;;;10263533;28;20058;-88
2022/03/03 19:11:47;;;;;;;9.27;3.60;;;5.00;66.00;;;;;;10274328;28;20077;-88
2022/03/03 19:16:58;;;;;;;;;;;5.00;66.30;;;;;;10279501;28;20058;-88
2022/03/03 19:22:00;;;;;;;9.75;3.17;;;5.00;67.90;;;;;;10282987;28;19954;-88
2022/03/03 19:39:23;;;;;;;9.20;3.25;;;4.60;66.60;;;;;;10235150;28;20116;-88
2022/03/03 19:44:27;;;;;;;11.00;3.60;;;4.60;65.80;;;;;;10138495;28;20177;-88
2022/03/03 19:49:32;;;;;;;11.10;3.90;;;4.50;65.90;;;;;;10173254;28;20060;-88
2022/03/03 19:54:33;;;;;;;7.80;3.55;;;4.40;65.90;;;;;;10255589;28;20113;-88
2022/03/03 19:59:36;;;;;;;8.43;3.88;;;4.30;65.90;;;;;;10273067;28;20065;-88
2022/03/03 20:04:52;;;;;;;10.80;4.35;;;4.30;66.20;;;;;;10280693;28;20091;-87
2022/03/03 20:15:18;;;;;;;10.70;4.05;;;4.10;66.70;;;;;;10272566;28;20043;-89
2022/03/03 20:20:20;;;;;;;12.73;4.32;;;4.00;67.40;;;;;;10287038;28;20050;-88
2022/03/03 20:25:25;;;;;;;10.02;3.88;;;3.90;68.60;;;;;;10175052;28;20058;-89
2022/03/03 20:30:28;;;;;;;12.73;5.07;;;3.80;69.40;;;;;;10185615;28;20058;-88
2022/03/03 20:35:47;;;;;;;10.57;4.93;;;3.60;69.80;;;;;;10146736;28;20047;-88
2022/03/03 20:46:36;;;;;;;19.70;5.03;;;3.50;70.00;;;;;;10009570;29;20112;-88
2022/03/03 20:52:07;;;;;;;15.20;4.57;;;3.30;70.10;;;;;;10023043;29;20037;-87
2022/03/03 20:57:13;;;;;;;9.75;4.13;;;3.40;71.20;;;;;;10241026;28;20057;-88
2022/03/03 21:02:17;;;;;;;13.68;5.00;;;3.20;71.00;;;;;;10256524;28;20102;-90
2022/03/03 21:07:19;;;;;;;14.43;4.95;;;3.20;71.80;;;;;;10264954;28;20105;-88
2022/03/03 21:12:52;;;;;;;12.80;4.05;;;3.10;72.60;;;;;;10264969;28;20066;-88
2022/03/03 21:17:54;;;;;;;13.85;4.63;;;2.90;73.10;;;;;;10266234;28;20051;-88
2022/03/03 21:22:58;;;;;;;14.07;4.78;;;2.90;73.50;;;;;;10234083;28;20055;-89
2022/03/03 21:28:00;;;;;;;13.20;5.32;;;2.80;74.10;;;;;;10252684;28;20055;-88
2022/03/03 21:33:02;;;;;;;16.45;5.80;;;2.70;74.40;;;;;;10258987;28;20047;-88
2022/03/03 21:38:06;;;;;;;15.23;5.40;;;2.60;74.50;;;;;;10246190;28;20580;-88
2022/03/03 21:43:08;;;;;;;17.20;5.15;;;2.60;74.40;;;;;;10257932;28;20137;-89
2022/03/03 21:48:10;;;;;;;13.00;4.57;;;2.60;75.00;;;;;;10269538;28;20082;-88
2022/03/03 21:53:12;;;;;;;13.38;5.43;;;2.50;75.10;;;;;;10293082;28;20054;-89
2022/03/03 21:58:14;;;;;;;15.05;5.75;;;2.50;74.70;;;;;;10300101;28;20057;-89
2022/03/03 22:03:16;;;;;;;14.88;4.53;;;2.40;75.20;;;;;;10232460;28;20474;-89
2022/03/03 22:08:23;;;;;;;20.42;7.18;;;2.40;76.20;;;;;;10292779;28;20038;-89
2022/03/03 22:13:26;;;;;;;19.45;6.47;;;2.30;77.00;;;;;;10286178;28;20452;-89
2022/03/03 22:18:32;;;;;;;20.92;7.47;;;2.20;77.70;;;;;;10278875;28;20410;-88
2022/03/03 22:23:34;;;;;;;16.92;5.82;;;2.10;77.70;;;;;;10271539;28;20054;-88
2022/03/03 22:28:36;;;;;;;12.77;5.00;;;2.10;77.60;;;;;;10288826;28;20083;-89
2022/03/03 22:33:38;;;;;;;16.13;5.70;;;2.00;78.00;;;;;;10250620;28;20054;-89
2022/03/03 22:38:40;;;;;;;17.80;6.07;;;1.90;79.70;;;;;;10218364;28;20076;-89
2022/03/03 22:43:44;;;;;;;18.00;6.32;;;1.80;80.70;;;;;;10277512;28;20081;-89
2022/03/03 22:48:47;;;;;;;16.60;5.70;;;1.70;82.80;;;;;;10268905;28;20074;-89
2022/03/03 22:53:49;;;;;;;18.40;6.22;;;1.60;83.60;;;;;;10248777;28;22086;-88
2022/03/03 22:58:50;;;;;;;15.00;6.25;;;1.50;84.00;;;;;;10280649;28;20054;-88
2022/03/03 23:09:14;;;;;;;9.88;5.18;;;1.30;83.60;;;;;;10294543;28;20125;-88
2022/03/03 23:14:15;;;;;;;15.13;6.25;;;1.30;82.90;;;;;;10263491;28;20369;-88
2022/03/03 23:19:18;;;;;;;18.55;5.82;;;1.20;85.40;;;;;;10294073;28;20050;-89
2022/03/03 23:24:21;;;;;;;15.55;5.78;;;1.10;87.00;;;;;;10293154;28;20518;-88
2022/03/03 23:29:23;;;;;;;16.67;5.22;;;1.00;89.80;;;;;;10283570;28;20050;-88
2022/03/03 23:34:24;;;;;;;14.77;5.75;;;0.90;90.00;;;;;;10268103;28;20392;-87
2022/03/03 23:39:26;;;;;;;20.05;5.90;;;0.80;91.80;;;;;;10269857;28;20050;-88
2022/03/03 23:44:28;;;;;;;17.42;5.78;;;0.60;92.80;;;;;;10260090;28;20125;-88
2022/03/03 23:49:30;;;;;;;15.40;6.35;;;0.60;92.10;;;;;;10228993;28;20078;-88
2022/03/03 23:54:32;;;;;;;11.98;4.97;;;0.50;92.20;;;;;;10255806;28;20537;-88
2022/03/03 23:59:34;;;;;;;15.23;5.70;;;0.50;93.00;;;;;;10251076;28;20058;-88
